sensor_id;sensor_type;location;lat;lon;timestamp;pressure;altitude;pressure_sealevel;temperature;humidity
19114;BME280;9689;51.052;13.772;2023-02-12T00:04:49;102131.03;;;5.72;88.78
19114;BME280;9689;51.052;13.772;2023-02-12T00:09:51;102132.00;;;5.76;89.15
19114;BME280;9689;51.052;13.772;2023-02-12T00:14:52;102130.94;;;5.69;89.51
19114;BME280;9689;51.052;13.772;2023-02-12T00:19:53;102134.56;;;5.74;90.17
19114;BME280;9689;51.052;13.772;2023-02-12T00:24:55;102140.66;;;5.76;89.38
19114;BME280;9689;51.052;13.772;2023-02-12T00:29:56;102143.31;;;5.79;89.40
19114;BME280;9689;51.052;13.772;2023-02-12T00:34:57;102139.88;;;5.80;89.42
19114;BME280;9689;51.052;13.772;2023-02-12T00:39:59;102139.34;;;5.90;89.71
19114;BME280;9689;51.052;13.772;2023-02-12T00:45:00;102140.03;;;5.85;90.04
19114;BME280;9689;51.052;13.772;2023-02-12T00:50:02;102136.53;;;5.83;89.42
19114;BME280;9689;51.052;13.772;2023-02-12T00:55:05;102144.34;;;5.84;89.90
19114;BME280;9689;51.052;13.772;2023-02-12T01:00:07;102134.75;;;5.82;89.10
19114;BME280;9689;51.052;13.772;2023-02-12T01:05:08;102151.06;;;5.79;89.88
19114;BME280;9689;51.052;13.772;2023-02-12T01:10:10;102149.34;;;5.80;89.60
19114;BME280;9689;51.052;13.772;2023-02-12T01:15:11;102156.34;;;5.82;89.67
19114;BME280;9689;51.052;13.772;2023-02-12T01:20:15;102158.88;;;5.81;89.96
19114;BME280;9689;51.052;13.772;2023-02-12T01:25:18;102155.53;;;5.83;89.25
19114;BME280;9689;51.052;13.772;2023-02-12T01:30:19;102160.72;;;5.85;89.79
19114;BME280;9689;51.052;13.772;2023-02-12T01:35:23;102162.34;;;5.81;89.69
19114;BME280;9689;51.052;13.772;2023-02-12T01:40:25;102157.09;;;5.78;90.11
19114;BME280;9689;51.052;13.772;2023-02-12T01:45:45;102162.41;;;5.83;89.35
19114;BME280;9689;51.052;13.772;2023-02-12T01:50:47;102160.59;;;5.80;89.49
19114;BME280;9689;51.052;13.772;2023-02-12T01:55:53;102166.63;;;5.81;89.82
19114;BME280;9689;51.052;13.772;2023-02-12T02:00:59;102159.81;;;5.83;89.68
19114;BME280;9689;51.052;13.772;2023-02-12T02:06:06;102165.91;;;5.85;90.21
19114;BME280;9689;51.052;13.772;2023-02-12T02:11:11;102158.09;;;5.83;90.08
19114;BME280;9689;51.052;13.772;2023-02-12T02:16:34;102160.78;;;5.86;89.38
19114;BME280;9689;51.052;13.772;2023-02-12T02:22:11;102166.84;;;5.88;89.89
19114;BME280;9689;51.052;13.772;2023-02-12T02:27:26;102158.19;;;5.86;90.54
19114;BME280;9689;51.052;13.772;2023-02-12T02:32:31;102162.53;;;5.87;89.81
19114;BME280;9689;51.052;13.772;2023-02-12T02:37:39;102165.22;;;5.90;89.48
19114;BME280;9689;51.052;13.772;2023-02-12T02:42:47;102166.78;;;5.85;89.19
19114;BME280;9689;51.052;13.772;2023-02-12T02:47:57;102162.47;;;5.86;90.50
19114;BME280;9689;51.052;13.772;2023-02-12T02:53:01;102171.81;;;5.81;89.88
19114;BME280;9689;51.052;13.772;2023-02-12T02:58:05;102182.94;;;5.78;89.58
19114;BME280;9689;51.052;13.772;2023-02-12T03:03:14;102197.75;;;5.82;89.94
19114;BME280;9689;51.052;13.772;2023-02-12T03:08:19;102196.81;;;5.80;90.13
19114;BME280;9689;51.052;13.772;2023-02-12T03:13:26;102201.03;;;5.77;90.10
19114;BME280;9689;51.052;13.772;2023-02-12T03:18:33;102201.28;;;5.86;89.37
19114;BME280;9689;51.052;13.772;2023-02-12T03:23:38;102207.19;;;5.82;90.38
19114;BME280;9689;51.052;13.772;2023-02-12T03:28:39;102216.63;;;5.80;89.34
19114;BME280;9689;51.052;13.772;2023-02-12T03:33:54;102222.72;;;5.82;90.38
19114;BME280;9689;51.052;13.772;2023-02-12T03:39:04;102235.59;;;5.80;89.36
19114;BME280;9689;51.052;13.772;2023-02-12T03:44:13;102238.13;;;5.77;89.99
19114;BME280;9689;51.052;13.772;2023-02-12T03:49:21;102245.72;;;5.73;89.51
19114;BME280;9689;51.052;13.772;2023-02-12T03:54:23;102257.84;;;5.74;90.16
19114;BME280;9689;51.052;13.772;2023-02-12T03:59:24;102259.47;;;5.72;90.05
19114;BME280;9689;51.052;13.772;2023-02-12T04:04:27;102272.69;;;5.81;90.16
19114;BME280;9689;51.052;13.772;2023-02-12T04:09:30;102275.38;;;5.82;90.29
19114;BME280;9689;51.052;13.772;2023-02-12T04:14:38;102277.13;;;5.83;89.88
19114;BME280;9689;51.052;13.772;2023-02-12T04:19:52;102286.44;;;5.78;90.47
19114;BME280;9689;51.052;13.772;2023-02-12T04:25:00;102287.31;;;5.79;89.63
19114;BME280;9689;51.052;13.772;2023-02-12T04:30:06;102283.00;;;5.79;90.47
19114;BME280;9689;51.052;13.772;2023-02-12T04:35:19;102292.22;;;5.71;90.59
19114;BME280;9689;51.052;13.772;2023-02-12T04:40:22;102289.84;;;5.77;91.05
19114;BME280;9689;51.052;13.772;2023-02-12T04:45:25;102287.81;;;5.67;91.14
19114;BME280;9689;51.052;13.772;2023-02-12T04:50:37;102294.31;;;5.56;91.81
19114;BME280;9689;51.052;13.772;2023-02-12T04:55:38;102288.44;;;5.60;90.93
19114;BME280;9689;51.052;13.772;2023-02-12T05:00:39;102289.03;;;5.51;91.98
19114;BME280;9689;51.052;13.772;2023-02-12T05:05:41;102303.00;;;5.56;91.49
19114;BME280;9689;51.052;13.772;2023-02-12T05:10:42;102303.03;;;5.58;91.54
19114;BME280;9689;51.052;13.772;2023-02-12T05:15:42;102297.66;;;5.52;91.70
19114;BME280;9689;51.052;13.772;2023-02-12T05:20:45;102300.31;;;5.55;92.20
19114;BME280;9689;51.052;13.772;2023-02-12T05:25:45;102303.56;;;5.48;91.95
19114;BME280;9689;51.052;13.772;2023-02-12T05:30:46;102308.91;;;5.54;91.61
19114;BME280;9689;51.052;13.772;2023-02-12T05:35:48;102320.03;;;5.51;91.48
19114;BME280;9689;51.052;13.772;2023-02-12T05:40:49;102315.59;;;5.47;91.62
19114;BME280;9689;51.052;13.772;2023-02-12T05:45:49;102321.53;;;5.45;91.74
19114;BME280;9689;51.052;13.772;2023-02-12T05:50:52;102322.59;;;5.50;92.17
19114;BME280;9689;51.052;13.772;2023-02-12T05:55:52;102322.00;;;5.58;92.28
19114;BME280;9689;51.052;13.772;2023-02-12T06:00:53;102321.09;;;5.56;91.78
19114;BME280;9689;51.052;13.772;2023-02-12T06:05:55;102321.28;;;5.62;91.08
19114;BME280;9689;51.052;13.772;2023-02-12T06:10:59;102327.22;;;5.60;91.26
19114;BME280;9689;51.052;13.772;2023-02-12T06:16:00;102341.09;;;5.62;92.13
19114;BME280;9689;51.052;13.772;2023-02-12T06:21:03;102345.38;;;5.61;91.63
19114;BME280;9689;51.052;13.772;2023-02-12T06:26:04;102345.41;;;5.63;92.00
19114;BME280;9689;51.052;13.772;2023-02-12T06:31:05;102354.28;;;5.70;90.79
19114;BME280;9689;51.052;13.772;2023-02-12T06:36:16;102362.03;;;5.70;91.59
19114;BME280;9689;51.052;13.772;2023-02-12T06:41:18;102380.31;;;5.74;91.79
19114;BME280;9689;51.052;13.772;2023-02-12T06:46:19;102387.31;;;5.78;90.95
19114;BME280;9689;51.052;13.772;2023-02-12T06:51:22;102404.81;;;5.85;90.71
19114;BME280;9689;51.052;13.772;2023-02-12T06:56:23;102398.75;;;5.85;90.35
19114;BME280;9689;51.052;13.772;2023-02-12T07:01:26;102401.22;;;5.82;90.53
19114;BME280;9689;51.052;13.772;2023-02-12T07:06:30;102409.34;;;5.91;90.02
19114;BME280;9689;51.052;13.772;2023-02-12T07:11:33;102404.91;;;5.88;90.84
19114;BME280;9689;51.052;13.772;2023-02-12T07:16:36;102405.19;;;5.96;90.11
19114;BME280;9689;51.052;13.772;2023-02-12T07:21:39;102419.00;;;5.97;89.10
19114;BME280;9689;51.052;13.772;2023-02-12T07:26:40;102417.56;;;6.05;89.48
19114;BME280;9689;51.052;13.772;2023-02-12T07:31:42;102421.06;;;6.07;88.81
19114;BME280;9689;51.052;13.772;2023-02-12T07:36:44;102434.13;;;6.10;88.99
19114;BME280;9689;51.052;13.772;2023-02-12T07:41:45;102422.16;;;6.13;89.20
19114;BME280;9689;51.052;13.772;2023-02-12T07:46:47;102429.41;;;6.25;88.99
19114;BME280;9689;51.052;13.772;2023-02-12T07:51:49;102431.88;;;6.20;88.64
19114;BME280;9689;51.052;13.772;2023-02-12T07:56:50;102433.72;;;6.24;88.88
19114;BME280;9689;51.052;13.772;2023-02-12T08:01:51;102439.53;;;6.73;89.07
19114;BME280;9689;51.052;13.772;2023-02-12T08:06:55;102444.09;;;6.51;88.22
19114;BME280;9689;51.052;13.772;2023-02-12T08:11:56;102440.72;;;6.27;87.64
19114;BME280;9689;51.052;13.772;2023-02-12T08:16:57;102451.22;;;6.60;87.20
19114;BME280;9689;51.052;13.772;2023-02-12T08:22:00;102452.69;;;6.79;86.38
19114;BME280;9689;51.052;13.772;2023-02-12T08:27:01;102455.28;;;6.79;85.40
19114;BME280;9689;51.052;13.772;2023-02-12T08:32:03;102456.59;;;6.66;85.28
19114;BME280;9689;51.052;13.772;2023-02-12T08:37:06;102460.94;;;6.67;86.28
19114;BME280;9689;51.052;13.772;2023-02-12T08:42:06;102456.75;;;6.71;86.29
19114;BME280;9689;51.052;13.772;2023-02-12T08:47:07;102466.06;;;6.64;85.70
19114;BME280;9689;51.052;13.772;2023-02-12T08:52:09;102469.78;;;6.74;85.63
19114;BME280;9689;51.052;13.772;2023-02-12T08:57:10;102478.16;;;6.94;85.10
19114;BME280;9689;51.052;13.772;2023-02-12T09:02:11;102477.13;;;6.87;84.94
19114;BME280;9689;51.052;13.772;2023-02-12T09:07:13;102491.81;;;6.87;85.28
19114;BME280;9689;51.052;13.772;2023-02-12T09:12:14;102493.19;;;7.04;84.78
19114;BME280;9689;51.052;13.772;2023-02-12T09:17:14;102495.97;;;7.12;84.26
19114;BME280;9689;51.052;13.772;2023-02-12T09:22:16;102497.34;;;7.29;84.01
19114;BME280;9689;51.052;13.772;2023-02-12T09:27:17;102498.59;;;7.42;83.28
19114;BME280;9689;51.052;13.772;2023-02-12T09:32:18;102505.22;;;7.32;82.89
19114;BME280;9689;51.052;13.772;2023-02-12T09:37:20;102505.69;;;7.19;84.35
19114;BME280;9689;51.052;13.772;2023-02-12T09:42:28;102509.53;;;7.31;83.79
19114;BME280;9689;51.052;13.772;2023-02-12T09:47:36;102517.34;;;7.33;83.28
19114;BME280;9689;51.052;13.772;2023-02-12T09:52:42;102515.16;;;7.17;83.58
19114;BME280;9689;51.052;13.772;2023-02-12T09:57:43;102519.81;;;7.28;83.77
19114;BME280;9689;51.052;13.772;2023-02-12T10:02:45;102523.28;;;7.29;83.58
19114;BME280;9689;51.052;13.772;2023-02-12T10:08:05;102523.03;;;7.50;83.17
19114;BME280;9689;51.052;13.772;2023-02-12T10:13:19;102521.97;;;7.43;82.28
19114;BME280;9689;51.052;13.772;2023-02-12T10:18:37;102521.41;;;7.55;81.75
19114;BME280;9689;51.052;13.772;2023-02-12T10:24:02;102528.22;;;7.50;82.54
19114;BME280;9689;51.052;13.772;2023-02-12T10:29:12;102526.56;;;7.53;83.52
19114;BME280;9689;51.052;13.772;2023-02-12T10:34:17;102520.47;;;7.51;82.69
19114;BME280;9689;51.052;13.772;2023-02-12T10:39:23;102519.09;;;7.64;82.11
19114;BME280;9689;51.052;13.772;2023-02-12T10:44:24;102516.47;;;7.64;81.93
19114;BME280;9689;51.052;13.772;2023-02-12T10:49:25;102515.72;;;7.67;81.31
19114;BME280;9689;51.052;13.772;2023-02-12T10:54:33;102513.03;;;7.97;80.42
19114;BME280;9689;51.052;13.772;2023-02-12T10:59:34;102513.28;;;8.39;81.34
19114;BME280;9689;51.052;13.772;2023-02-12T11:04:34;102517.88;;;8.50;79.91
19114;BME280;9689;51.052;13.772;2023-02-12T11:09:38;102514.06;;;8.71;78.18
19114;BME280;9689;51.052;13.772;2023-02-12T11:14:48;102505.94;;;8.95;76.87
19114;BME280;9689;51.052;13.772;2023-02-12T11:20:01;102503.16;;;8.87;75.09
19114;BME280;9689;51.052;13.772;2023-02-12T11:25:13;102494.50;;;8.87;74.94
19114;BME280;9689;51.052;13.772;2023-02-12T11:30:17;102494.72;;;8.97;74.53
19114;BME280;9689;51.052;13.772;2023-02-12T11:35:20;102489.91;;;8.76;74.76
19114;BME280;9689;51.052;13.772;2023-02-12T11:40:27;102485.00;;;8.89;74.55
19114;BME280;9689;51.052;13.772;2023-02-12T11:45:30;102491.06;;;8.89;74.32
19114;BME280;9689;51.052;13.772;2023-02-12T11:50:32;102489.19;;;8.82;75.59
19114;BME280;9689;51.052;13.772;2023-02-12T11:55:37;102486.53;;;8.81;74.89
19114;BME280;9689;51.052;13.772;2023-02-12T12:00:44;102488.56;;;8.94;74.00
19114;BME280;9689;51.052;13.772;2023-02-12T12:05:49;102480.94;;;9.01;73.83
19114;BME280;9689;51.052;13.772;2023-02-12T12:10:56;102476.22;;;8.84;73.77
19114;BME280;9689;51.052;13.772;2023-02-12T12:16:05;102477.00;;;8.80;73.32
19114;BME280;9689;51.052;13.772;2023-02-12T12:21:31;102484.56;;;8.69;74.66
19114;BME280;9689;51.052;13.772;2023-02-12T12:26:35;102489.44;;;8.55;73.83
19114;BME280;9689;51.052;13.772;2023-02-12T12:31:42;102483.97;;;8.43;74.31
19114;BME280;9689;51.052;13.772;2023-02-12T12:37:08;102481.47;;;8.14;76.00
19114;BME280;9689;51.052;13.772;2023-02-12T12:42:38;102476.88;;;8.03;76.30
19114;BME280;9689;51.052;13.772;2023-02-12T12:47:54;102462.16;;;8.03;76.43
19114;BME280;9689;51.052;13.772;2023-02-12T12:53:09;102462.34;;;8.11;77.30
19114;BME280;9689;51.052;13.772;2023-02-12T12:58:20;102467.31;;;8.35;77.83
19114;BME280;9689;51.052;13.772;2023-02-12T13:03:54;102466.00;;;8.17;76.98
19114;BME280;9689;51.052;13.772;2023-02-12T13:09:16;102467.16;;;7.96;77.53
19114;BME280;9689;51.052;13.772;2023-02-12T13:14:28;102462.78;;;7.93;78.19
19114;BME280;9689;51.052;13.772;2023-02-12T13:19:41;102464.59;;;7.97;78.54
19114;BME280;9689;51.052;13.772;2023-02-12T13:24:51;102467.59;;;7.79;79.90
19114;BME280;9689;51.052;13.772;2023-02-12T13:30:00;102463.84;;;7.68;81.65
19114;BME280;9689;51.052;13.772;2023-02-12T13:35:05;102460.25;;;7.96;83.12
19114;BME280;9689;51.052;13.772;2023-02-12T13:40:09;102463.19;;;7.75;81.33
19114;BME280;9689;51.052;13.772;2023-02-12T13:45:26;102462.41;;;7.79;81.73
19114;BME280;9689;51.052;13.772;2023-02-12T13:50:36;102462.91;;;7.99;81.23
19114;BME280;9689;51.052;13.772;2023-02-12T13:55:54;102464.06;;;8.10;81.27
19114;BME280;9689;51.052;13.772;2023-02-12T14:01:02;102465.81;;;8.11;80.71
19114;BME280;9689;51.052;13.772;2023-02-12T14:06:12;102449.56;;;8.18;79.92
19114;BME280;9689;51.052;13.772;2023-02-12T14:11:17;102462.63;;;8.23;80.01
19114;BME280;9689;51.052;13.772;2023-02-12T14:16:38;102467.19;;;8.32;79.36
19114;BME280;9689;51.052;13.772;2023-02-12T14:21:40;102470.25;;;8.15;79.49
19114;BME280;9689;51.052;13.772;2023-02-12T14:26:41;102467.34;;;8.03;80.04
19114;BME280;9689;51.052;13.772;2023-02-12T14:31:44;102473.03;;;7.88;81.03
19114;BME280;9689;51.052;13.772;2023-02-12T14:36:45;102466.34;;;7.98;81.00
19114;BME280;9689;51.052;13.772;2023-02-12T14:41:48;102462.84;;;7.96;81.13
19114;BME280;9689;51.052;13.772;2023-02-12T14:46:54;102470.41;;;7.87;81.31
19114;BME280;9689;51.052;13.772;2023-02-12T14:51:57;102472.06;;;7.85;81.05
19114;BME280;9689;51.052;13.772;2023-02-12T14:57:01;102480.56;;;7.79;81.98
19114;BME280;9689;51.052;13.772;2023-02-12T15:02:07;102479.69;;;7.79;82.37
19114;BME280;9689;51.052;13.772;2023-02-12T15:07:21;102486.50;;;7.74;82.37
19114;BME280;9689;51.052;13.772;2023-02-12T15:12:28;102476.13;;;7.74;82.46
19114;BME280;9689;51.052;13.772;2023-02-12T15:17:34;102477.38;;;7.56;83.60
19114;BME280;9689;51.052;13.772;2023-02-12T15:22:39;102482.19;;;7.43;84.19
19114;BME280;9689;51.052;13.772;2023-02-12T15:27:41;102484.47;;;7.32;84.98
19114;BME280;9689;51.052;13.772;2023-02-12T15:32:44;102486.88;;;7.26;85.94
19114;BME280;9689;51.052;13.772;2023-02-12T15:37:45;102487.72;;;7.25;86.33
19114;BME280;9689;51.052;13.772;2023-02-12T15:42:52;102494.41;;;7.17;86.93
19114;BME280;9689;51.052;13.772;2023-02-12T15:48:00;102493.00;;;6.98;87.64
19114;BME280;9689;51.052;13.772;2023-02-12T15:53:02;102493.78;;;6.95;88.09
19114;BME280;9689;51.052;13.772;2023-02-12T15:58:03;102497.97;;;6.92;89.35
19114;BME280;9689;51.052;13.772;2023-02-12T16:03:05;102492.84;;;6.93;89.15
19114;BME280;9689;51.052;13.772;2023-02-12T16:08:06;102495.53;;;6.96;89.26
19114;BME280;9689;51.052;13.772;2023-02-12T16:13:15;102492.00;;;6.94;88.68
19114;BME280;9689;51.052;13.772;2023-02-12T16:18:25;102498.78;;;6.89;88.87
19114;BME280;9689;51.052;13.772;2023-02-12T16:23:26;102507.50;;;6.93;88.74
19114;BME280;9689;51.052;13.772;2023-02-12T16:28:28;102504.00;;;6.91;89.27
19114;BME280;9689;51.052;13.772;2023-02-12T16:33:32;102518.63;;;6.89;89.61
19114;BME280;9689;51.052;13.772;2023-02-12T16:38:39;102524.75;;;6.91;89.53
19114;BME280;9689;51.052;13.772;2023-02-12T16:43:41;102530.84;;;6.93;89.06
19114;BME280;9689;51.052;13.772;2023-02-12T16:48:45;102530.75;;;6.90;89.06
19114;BME280;9689;51.052;13.772;2023-02-12T16:53:47;102526.41;;;7.79;90.05
19114;BME280;9689;51.052;13.772;2023-02-12T16:58:53;102535.50;;;7.33;87.33
19114;BME280;9689;51.052;13.772;2023-02-12T17:03:57;102527.91;;;7.39;87.09
19114;BME280;9689;51.052;13.772;2023-02-12T17:08:58;102538.25;;;7.09;86.47
19114;BME280;9689;51.052;13.772;2023-02-12T17:13:59;102534.53;;;7.01;86.95
19114;BME280;9689;51.052;13.772;2023-02-12T17:19:01;102533.38;;;6.91;87.83
19114;BME280;9689;51.052;13.772;2023-02-12T17:24:03;102538.34;;;6.84;87.37
19114;BME280;9689;51.052;13.772;2023-02-12T17:29:04;102563.03;;;6.99;86.88
19114;BME280;9689;51.052;13.772;2023-02-12T17:34:06;102549.69;;;6.87;87.05
19114;BME280;9689;51.052;13.772;2023-02-12T17:39:08;102554.88;;;6.87;86.97
19114;BME280;9689;51.052;13.772;2023-02-12T17:44:10;102552.22;;;6.86;87.32
19114;BME280;9689;51.052;13.772;2023-02-12T17:49:14;102565.88;;;6.80;87.51
19114;BME280;9689;51.052;13.772;2023-02-12T17:54:15;102569.31;;;6.79;87.49
19114;BME280;9689;51.052;13.772;2023-02-12T17:59:18;102570.03;;;6.75;87.14
19114;BME280;9689;51.052;13.772;2023-02-12T18:04:20;102570.84;;;6.74;87.80
19114;BME280;9689;51.052;13.772;2023-02-12T18:09:21;102574.28;;;6.73;87.08
19114;BME280;9689;51.052;13.772;2023-02-12T18:14:22;102575.19;;;6.75;87.27
19114;BME280;9689;51.052;13.772;2023-02-12T18:19:25;102575.94;;;6.71;87.63
19114;BME280;9689;51.052;13.772;2023-02-12T18:24:26;102571.78;;;6.76;88.21
19114;BME280;9689;51.052;13.772;2023-02-12T18:29:29;102574.31;;;6.74;87.30
19114;BME280;9689;51.052;13.772;2023-02-12T18:34:31;102579.47;;;6.73;87.23
19114;BME280;9689;51.052;13.772;2023-02-12T18:39:34;102576.13;;;6.77;87.41
19114;BME280;9689;51.052;13.772;2023-02-12T18:44:35;102582.13;;;6.76;87.62
19114;BME280;9689;51.052;13.772;2023-02-12T18:49:37;102574.06;;;6.67;87.62
19114;BME280;9689;51.052;13.772;2023-02-12T18:54:37;102569.06;;;6.71;88.10
19114;BME280;9689;51.052;13.772;2023-02-12T18:59:38;102566.13;;;6.61;87.56
19114;BME280;9689;51.052;13.772;2023-02-12T19:04:40;102561.91;;;6.64;87.67
19114;BME280;9689;51.052;13.772;2023-02-12T19:09:41;102552.34;;;6.62;87.86
19114;BME280;9689;51.052;13.772;2023-02-12T19:14:42;102557.72;;;6.42;88.95
19114;BME280;9689;51.052;13.772;2023-02-12T19:19:44;102556.38;;;6.54;88.78
19114;BME280;9689;51.052;13.772;2023-02-12T19:24:45;102548.31;;;6.71;90.55
19114;BME280;9689;51.052;13.772;2023-02-12T19:29:49;102553.16;;;6.88;89.34
19114;BME280;9689;51.052;13.772;2023-02-12T19:34:51;102548.44;;;6.76;88.31
19114;BME280;9689;51.052;13.772;2023-02-12T19:39:51;102545.44;;;6.62;88.23
19114;BME280;9689;51.052;13.772;2023-02-12T19:44:52;102541.19;;;6.64;88.67
19114;BME280;9689;51.052;13.772;2023-02-12T19:49:54;102545.91;;;6.50;88.68
19114;BME280;9689;51.052;13.772;2023-02-12T19:54:55;102540.44;;;6.68;87.63
19114;BME280;9689;51.052;13.772;2023-02-12T19:59:57;102544.44;;;6.59;87.56
19114;BME280;9689;51.052;13.772;2023-02-12T20:04:59;102541.09;;;6.61;88.44
19114;BME280;9689;51.052;13.772;2023-02-12T20:09:59;102540.22;;;6.61;88.15
19114;BME280;9689;51.052;13.772;2023-02-12T20:15:00;102535.03;;;6.61;88.15
19114;BME280;9689;51.052;13.772;2023-02-12T20:20:09;102534.13;;;6.60;88.12
19114;BME280;9689;51.052;13.772;2023-02-12T20:25:10;102540.09;;;6.58;87.81
19114;BME280;9689;51.052;13.772;2023-02-12T20:30:11;102542.44;;;6.50;87.88
19114;BME280;9689;51.052;13.772;2023-02-12T20:35:14;102542.38;;;6.48;88.81
19114;BME280;9689;51.052;13.772;2023-02-12T20:40:15;102549.28;;;6.48;88.46
19114;BME280;9689;51.052;13.772;2023-02-12T20:45:16;102552.88;;;6.51;88.63
19114;BME280;9689;51.052;13.772;2023-02-12T20:50:19;102546.56;;;6.43;88.53
19114;BME280;9689;51.052;13.772;2023-02-12T20:55:20;102554.81;;;6.33;88.00
19114;BME280;9689;51.052;13.772;2023-02-12T21:00:20;102557.63;;;6.39;88.41
19114;BME280;9689;51.052;13.772;2023-02-12T21:05:22;102553.50;;;6.44;88.37
19114;BME280;9689;51.052;13.772;2023-02-12T21:10:23;102549.25;;;6.46;87.98
19114;BME280;9689;51.052;13.772;2023-02-12T21:15:26;102547.00;;;6.32;89.02
19114;BME280;9689;51.052;13.772;2023-02-12T21:20:28;102546.25;;;6.34;88.82
19114;BME280;9689;51.052;13.772;2023-02-12T21:25:29;102545.25;;;6.31;89.16
19114;BME280;9689;51.052;13.772;2023-02-12T21:30:30;102551.09;;;6.25;89.03
19114;BME280;9689;51.052;13.772;2023-02-12T21:35:34;102544.16;;;6.24;89.31
19114;BME280;9689;51.052;13.772;2023-02-12T21:40:35;102550.28;;;6.26;88.67
19114;BME280;9689;51.052;13.772;2023-02-12T21:45:35;102556.13;;;6.20;88.30
19114;BME280;9689;51.052;13.772;2023-02-12T21:50:37;102553.59;;;6.22;88.82
19114;BME280;9689;51.052;13.772;2023-02-12T21:55:38;102550.03;;;6.18;88.40
19114;BME280;9689;51.052;13.772;2023-02-12T22:00:39;102547.28;;;6.14;88.44
19114;BME280;9689;51.052;13.772;2023-02-12T22:05:41;102542.13;;;6.15;87.48
19114;BME280;9689;51.052;13.772;2023-02-12T22:10:42;102549.22;;;5.95;88.50
19114;BME280;9689;51.052;13.772;2023-02-12T22:15:42;102540.50;;;5.92;89.59
19114;BME280;9689;51.052;13.772;2023-02-12T22:20:44;102541.31;;;5.91;89.06
19114;BME280;9689;51.052;13.772;2023-02-12T22:25:45;102542.53;;;6.01;88.98
19114;BME280;9689;51.052;13.772;2023-02-12T22:30:46;102556.59;;;6.09;88.75
19114;BME280;9689;51.052;13.772;2023-02-12T22:35:48;102555.50;;;6.02;88.86
19114;BME280;9689;51.052;13.772;2023-02-12T22:40:50;102548.09;;;6.13;89.97
19114;BME280;9689;51.052;13.772;2023-02-12T22:45:51;102557.00;;;6.21;88.65
19114;BME280;9689;51.052;13.772;2023-02-12T22:50:54;102558.69;;;6.19;88.43
19114;BME280;9689;51.052;13.772;2023-02-12T22:55:55;102572.78;;;6.03;88.89
19114;BME280;9689;51.052;13.772;2023-02-12T23:00:56;102556.63;;;5.86;89.74
19114;BME280;9689;51.052;13.772;2023-02-12T23:06:01;102556.84;;;5.91;89.09
19114;BME280;9689;51.052;13.772;2023-02-12T23:11:01;102559.00;;;5.80;89.40
19114;BME280;9689;51.052;13.772;2023-02-12T23:16:04;102550.41;;;5.81;89.25
19114;BME280;9689;51.052;13.772;2023-02-12T23:21:07;102544.44;;;5.82;89.30
19114;BME280;9689;51.052;13.772;2023-02-12T23:26:08;102545.19;;;5.80;90.37
19114;BME280;9689;51.052;13.772;2023-02-12T23:31:08;102541.91;;;5.84;90.47
19114;BME280;9689;51.052;13.772;2023-02-12T23:36:11;102544.63;;;5.88;91.00
19114;BME280;9689;51.052;13.772;2023-02-12T23:41:11;102543.66;;;5.85;90.44
19114;BME280;9689;51.052;13.772;2023-02-12T23:46:12;102537.41;;;5.80;90.19
19114;BME280;9689;51.052;13.772;2023-02-12T23:51:14;102530.50;;;5.79;90.88
19114;BME280;9689;51.052;13.772;2023-02-12T23:56:15;102529.72;;;5.81;91.05
